Terminal Aerodrome Forecast
Issued by NWS

Home | Current Version | Previous Version | Text Only | Print | Product List | Glossary On
Versions: 1 2 3 4 5 6 7 8 9 10 11 12 13 14 15 16 17
700
FTUS43 KLSX 211136
TAFUIN
TAF
KUIN 211136Z 2112/2212 24009KT P6SM OVC140
     FM211400 32015G25KT P6SM OVC100
     FM212100 33013G19KT P6SM SKC
     FM220100 33008KT P6SM SKC=

USA.gov is the U.S. government's official web portal to all federal, state and local government web resources and services.